createdAt,value
2023-05-01T00:00:14.447Z,3.10
2023-05-01T00:01:14.443Z,3.10
2023-05-01T00:02:14.444Z,3.30
2023-05-01T00:03:14.685Z,3.10
2023-05-01T00:04:14.594Z,2.90
2023-05-01T00:05:14.428Z,3.10
2023-05-01T00:06:14.494Z,4.00
2023-05-01T00:07:14.418Z,3.70
2023-05-01T00:08:14.430Z,3.10
2023-05-01T00:09:14.430Z,3.30
2023-05-01T00:10:14.406Z,4.40
2023-05-01T00:11:14.408Z,2.90
2023-05-01T00:12:14.409Z,3.00
2023-05-01T00:13:14.400Z,3.50
2023-05-01T00:14:14.394Z,3.80
2023-05-01T00:15:14.397Z,3.30
2023-05-01T00:16:14.426Z,3.30
2023-05-01T00:17:14.391Z,4.10
2023-05-01T00:18:14.443Z,3.90
2023-05-01T00:19:14.508Z,3.20
2023-05-01T00:20:14.428Z,3.00
2023-05-01T00:21:14.384Z,3.60
2023-05-01T00:22:14.373Z,3.00
2023-05-01T00:23:14.369Z,2.80
2023-05-01T00:24:14.361Z,3.50
2023-05-01T00:25:14.377Z,2.60
2023-05-01T00:26:14.360Z,3.00
2023-05-01T00:27:14.352Z,2.60
2023-05-01T00:28:14.349Z,3.10
2023-05-01T00:29:14.352Z,2.90
2023-05-01T00:30:14.344Z,3.00
2023-05-01T00:31:14.385Z,3.00
2023-05-01T00:32:14.377Z,3.10
2023-05-01T00:33:14.336Z,3.50
2023-05-01T00:34:14.333Z,4.00
2023-05-01T00:35:14.334Z,3.80
2023-05-01T00:36:14.326Z,3.20
2023-05-01T00:37:14.325Z,3.10
2023-05-01T00:38:14.323Z,3.30
2023-05-01T00:39:14.327Z,3.20
2023-05-01T00:40:14.314Z,2.80
2023-05-01T00:41:14.383Z,3.50
2023-05-01T00:42:14.311Z,3.50
2023-05-01T00:43:14.371Z,3.00
2023-05-01T00:44:14.301Z,3.60
2023-05-01T00:45:14.504Z,3.00
2023-05-01T00:46:14.335Z,3.80
2023-05-01T00:47:14.291Z,3.10
2023-05-01T00:48:14.290Z,3.20
2023-05-01T00:49:14.289Z,2.90
2023-05-01T00:50:14.290Z,2.90
2023-05-01T00:51:14.282Z,2.90
2023-05-01T00:52:14.282Z,2.70
2023-05-01T00:53:14.283Z,2.60
2023-05-01T00:54:14.273Z,2.70
2023-05-01T00:55:14.276Z,2.20
2023-05-01T00:56:14.272Z,2.60
2023-05-01T00:57:14.297Z,2.50
2023-05-01T00:58:14.263Z,2.90
2023-05-01T00:59:14.252Z,3.50
2023-05-01T01:00:14.252Z,2.80
2023-05-01T01:01:14.283Z,2.90
2023-05-01T01:02:14.247Z,3.30
2023-05-01T01:03:14.238Z,3.20
2023-05-01T01:04:14.309Z,2.80
2023-05-01T01:05:14.240Z,2.70
2023-05-01T01:06:14.294Z,2.70
2023-05-01T01:07:14.237Z,2.60
2023-05-01T01:08:14.219Z,2.60
2023-05-01T01:09:14.218Z,2.60
2023-05-01T01:10:14.227Z,2.60
2023-05-01T01:11:14.212Z,2.60
2023-05-01T01:12:14.205Z,2.50
2023-05-01T01:13:14.221Z,2.80
2023-05-01T01:14:14.200Z,2.40
2023-05-01T01:15:14.195Z,2.70
2023-05-01T01:16:14.284Z,2.50
2023-05-01T01:17:14.242Z,2.10
2023-05-01T01:18:14.491Z,3.20
2023-05-01T01:19:14.181Z,3.00
2023-05-01T01:20:14.178Z,2.50
2023-05-01T01:21:14.179Z,2.80
2023-05-01T01:22:14.169Z,3.10
2023-05-01T01:23:14.174Z,2.20
2023-05-01T01:24:14.172Z,2.50
2023-05-01T01:25:14.164Z,2.70
2023-05-01T01:26:14.153Z,2.70
2023-05-01T01:27:14.158Z,2.80
2023-05-01T01:28:14.149Z,2.50
2023-05-01T01:29:14.261Z,2.90
2023-05-01T01:30:14.147Z,2.90
2023-05-01T01:31:14.241Z,3.10
2023-05-01T01:32:14.131Z,2.80
2023-05-01T01:33:14.132Z,3.00
2023-05-01T01:34:14.130Z,2.60
2023-05-01T01:35:14.123Z,2.60
2023-05-01T01:36:14.119Z,2.90
2023-05-01T01:37:14.116Z,2.60
2023-05-01T01:38:14.118Z,2.40
2023-05-01T01:39:14.108Z,2.90
2023-05-01T01:40:14.103Z,2.50
2023-05-01T01:41:14.102Z,2.40
2023-05-01T01:42:14.100Z,3.30
2023-05-01T01:43:14.097Z,2.50
2023-05-01T01:44:14.091Z,2.70
2023-05-01T01:45:14.129Z,2.60
2023-05-01T01:46:14.129Z,2.90
2023-05-01T01:47:14.084Z,2.50
2023-05-01T01:48:14.079Z,2.50
2023-05-01T01:49:14.072Z,2.60
2023-05-01T01:50:14.321Z,2.30
2023-05-01T01:51:14.078Z,2.40
2023-05-01T01:52:14.060Z,2.50
2023-05-01T01:53:14.058Z,2.70
2023-05-01T01:54:14.062Z,2.60
2023-05-01T01:55:14.060Z,3.80
2023-05-01T01:56:14.052Z,2.90
2023-05-01T01:57:14.045Z,2.90
2023-05-01T01:58:14.039Z,2.80
2023-05-01T01:59:14.041Z,2.70
2023-05-01T02:00:14.035Z,3.00
2023-05-01T02:01:14.113Z,2.70
2023-05-01T02:02:14.091Z,2.70
2023-05-01T02:03:14.073Z,3.40
2023-05-01T02:04:14.061Z,2.90
2023-05-01T02:05:14.012Z,3.20
2023-05-01T02:06:14.095Z,3.40
2023-05-01T02:07:14.007Z,3.50
2023-05-01T02:08:14.002Z,4.20
2023-05-01T02:09:14.006Z,3.60
2023-05-01T02:10:13.998Z,2.70
2023-05-01T02:11:13.994Z,3.40
2023-05-01T02:12:13.995Z,2.90
2023-05-01T02:13:13.994Z,2.80
2023-05-01T02:14:14.390Z,2.60
2023-05-01T02:15:13.982Z,2.60
2023-05-01T02:16:14.005Z,2.80
2023-05-01T02:17:13.993Z,2.50
2023-05-01T02:18:13.965Z,2.50
2023-05-01T02:19:13.974Z,2.10
2023-05-01T02:20:13.982Z,2.40
2023-05-01T02:21:13.959Z,2.80
2023-05-01T02:22:13.957Z,3.10
2023-05-01T02:23:13.950Z,2.30
2023-05-01T02:24:13.948Z,2.30
2023-05-01T02:25:13.956Z,2.40
2023-05-01T02:26:13.948Z,2.40
2023-05-01T02:27:13.933Z,2.70
2023-05-01T02:28:13.930Z,2.60
2023-05-01T02:29:13.926Z,2.30
2023-05-01T02:30:13.925Z,2.60
2023-05-01T02:31:13.983Z,3.00
2023-05-01T02:32:13.918Z,2.60
2023-05-01T02:33:13.929Z,2.70
2023-05-01T02:34:13.911Z,2.60
2023-05-01T02:35:13.922Z,3.00
2023-05-01T02:36:13.902Z,2.90
2023-05-01T02:37:13.894Z,3.00
2023-05-01T02:38:13.910Z,4.50
2023-05-01T02:39:13.887Z,3.30
2023-05-01T02:40:13.892Z,3.90
2023-05-01T02:41:13.880Z,2.90
2023-05-01T02:42:13.879Z,3.10
2023-05-01T02:43:13.903Z,3.50
2023-05-01T02:44:13.873Z,3.10
2023-05-01T02:45:13.868Z,2.90
2023-05-01T02:46:13.899Z,2.60
2023-05-01T02:47:13.912Z,2.90
2023-05-01T02:48:13.886Z,2.70
2023-05-01T02:49:13.867Z,2.60
2023-05-01T02:50:13.854Z,2.70
2023-05-01T02:51:13.843Z,3.00
2023-05-01T02:52:13.857Z,3.60
2023-05-01T02:53:13.835Z,3.70
2023-05-01T02:54:13.850Z,3.10
2023-05-01T02:55:14.076Z,3.10
2023-05-01T02:56:13.835Z,3.20
2023-05-01T02:57:13.817Z,3.20
2023-05-01T02:58:13.818Z,3.40
2023-05-01T02:59:13.808Z,3.10
2023-05-01T03:00:14.181Z,3.50
2023-05-01T03:01:13.843Z,3.70
2023-05-01T03:02:13.803Z,3.50
2023-05-01T03:03:13.822Z,3.80
2023-05-01T03:04:13.850Z,3.30
2023-05-01T03:05:13.834Z,2.80
2023-05-01T03:06:13.842Z,4.70
2023-05-01T03:07:13.777Z,3.00
2023-05-01T03:08:13.780Z,3.10
2023-05-01T03:09:13.775Z,2.90
2023-05-01T03:10:13.770Z,3.70
2023-05-01T03:11:13.763Z,3.30
2023-05-01T03:12:13.793Z,3.10
2023-05-01T03:15:13.760Z,3.20
2023-05-01T03:16:13.771Z,3.30
2023-05-01T03:17:13.748Z,3.20
2023-05-01T03:18:56.282Z,3.80
2023-05-01T03:19:56.565Z,3.90
2023-05-01T03:21:56.288Z,2.50
2023-05-01T03:22:56.268Z,3.30
2023-05-01T03:24:56.260Z,2.60
2023-05-01T03:25:56.459Z,2.80
2023-05-01T03:26:56.257Z,2.70
2023-05-01T03:27:56.252Z,2.80
2023-05-01T03:28:56.240Z,2.90
2023-05-01T03:29:56.486Z,2.80
2023-05-01T03:30:57.642Z,3.60
2023-05-01T03:31:56.240Z,3.60
2023-05-01T03:32:56.284Z,3.00
2023-05-01T03:34:56.310Z,3.20
2023-05-01T03:35:56.224Z,3.60
2023-05-01T03:37:56.223Z,3.50
2023-05-01T03:39:56.378Z,4.20
2023-05-01T03:41:56.196Z,3.70
2023-05-01T03:42:56.181Z,3.40
2023-05-01T03:43:56.178Z,3.50
2023-05-01T03:44:56.184Z,3.50
2023-05-01T03:45:56.202Z,3.70
2023-05-01T03:46:56.178Z,3.60
2023-05-01T03:47:56.238Z,3.40
2023-05-01T03:48:56.171Z,3.70
2023-05-01T03:49:56.418Z,3.30
2023-05-01T03:50:56.163Z,2.70
2023-05-01T03:51:56.148Z,2.80
2023-05-01T03:52:56.141Z,2.80
2023-05-01T03:53:56.179Z,2.60
2023-05-01T03:54:56.137Z,2.70
2023-05-01T03:55:56.288Z,2.70
2023-05-01T03:56:56.129Z,3.20
2023-05-01T03:57:56.124Z,2.90
2023-05-01T03:58:56.128Z,3.50
2023-05-01T03:59:56.402Z,3.30
2023-05-01T04:00:56.122Z,3.50
2023-05-01T04:01:56.154Z,3.30
2023-05-01T04:02:56.288Z,3.60
2023-05-01T04:03:56.319Z,4.20
2023-05-01T04:04:56.104Z,3.40
2023-05-01T04:05:56.216Z,3.20
2023-05-01T04:06:56.117Z,3.70
2023-05-01T04:07:56.099Z,3.20
2023-05-01T04:08:56.082Z,3.20
2023-05-01T04:09:56.268Z,3.30
2023-05-01T04:10:56.073Z,3.50
2023-05-01T04:11:56.080Z,3.30
2023-05-01T04:12:56.075Z,3.20
2023-05-01T04:13:56.060Z,3.10
2023-05-01T04:14:56.056Z,3.00
2023-05-01T04:15:56.090Z,3.20
2023-05-01T04:16:56.050Z,3.60
2023-05-01T04:17:56.097Z,3.80
2023-05-01T04:18:56.046Z,3.60
2023-05-01T04:19:56.456Z,3.50
2023-05-01T04:20:56.031Z,3.70
2023-05-01T04:21:56.028Z,3.80
2023-05-01T04:22:56.030Z,3.20
2023-05-01T04:23:56.025Z,3.20
2023-05-01T04:24:56.041Z,3.50
2023-05-01T04:25:56.042Z,3.60
2023-05-01T04:26:56.025Z,2.90
2023-05-01T04:27:56.006Z,3.20
2023-05-01T04:28:56.000Z,3.10
2023-05-01T04:29:56.154Z,2.90
2023-05-01T04:30:55.989Z,3.00
2023-05-01T04:31:56.019Z,3.70
2023-05-01T04:32:55.988Z,3.60
2023-05-01T04:33:55.978Z,3.20
2023-05-01T04:34:55.978Z,2.80
2023-05-01T04:35:55.969Z,3.20
2023-05-01T04:36:55.963Z,4.10
2023-05-01T04:37:55.965Z,3.30
2023-05-01T04:38:55.971Z,4.50
2023-05-01T04:39:56.523Z,3.50
2023-05-01T04:40:55.947Z,3.70
2023-05-01T04:41:55.966Z,3.70
2023-05-01T04:42:55.949Z,3.30
2023-05-01T04:43:55.937Z,3.40
2023-05-01T04:44:55.934Z,3.60
2023-05-01T04:45:55.932Z,3.50
2023-05-01T04:46:55.961Z,4.00
2023-05-01T04:47:55.952Z,3.30
2023-05-01T04:48:55.925Z,3.10
2023-05-01T04:49:56.107Z,3.70
2023-05-01T04:50:55.910Z,3.30
2023-05-01T04:51:55.903Z,3.50
2023-05-01T04:52:55.903Z,3.40
2023-05-01T04:53:55.909Z,3.80
2023-05-01T04:54:55.888Z,4.10
2023-05-01T04:55:55.887Z,3.50
2023-05-01T04:56:55.882Z,3.50
2023-05-01T04:57:55.897Z,4.30
2023-05-01T04:58:55.881Z,3.90
2023-05-01T04:59:56.135Z,3.50
2023-05-01T05:00:55.872Z,3.70
2023-05-01T05:01:56.255Z,3.70
2023-05-01T05:02:55.951Z,3.60
2023-05-01T05:03:55.983Z,3.90
2023-05-01T05:04:55.849Z,3.50
2023-05-01T05:05:55.880Z,3.50
2023-05-01T05:06:55.842Z,3.60
2023-05-01T05:07:55.852Z,3.50
2023-05-01T05:08:55.841Z,3.40
2023-05-01T05:09:56.090Z,3.20
2023-05-01T05:10:55.827Z,3.30
2023-05-01T05:11:55.821Z,3.30
2023-05-01T05:12:55.966Z,4.00
2023-05-01T05:13:55.834Z,3.40
2023-05-01T05:14:55.808Z,3.60
2023-05-01T05:15:55.833Z,3.80
2023-05-01T05:16:55.926Z,3.90
2023-05-01T05:17:56.648Z,4.20
2023-05-01T05:18:55.793Z,4.20
2023-05-01T05:19:56.002Z,4.30
2023-05-01T05:20:55.788Z,4.10
2023-05-01T05:21:55.783Z,5.30
2023-05-01T05:22:55.783Z,4.40
2023-05-01T05:23:55.800Z,4.30
2023-05-01T05:24:55.767Z,4.30
2023-05-01T05:25:55.772Z,4.00
2023-05-01T05:26:55.771Z,4.10
2023-05-01T05:27:55.760Z,4.20
2023-05-01T05:28:55.754Z,4.30
2023-05-01T05:29:55.968Z,4.30
2023-05-01T05:30:55.745Z,3.90
2023-05-01T05:31:55.747Z,3.90
2023-05-01T05:32:55.792Z,3.90
2023-05-01T05:33:55.733Z,3.80
2023-05-01T05:34:55.734Z,3.90
2023-05-01T05:35:55.740Z,4.10
2023-05-01T05:36:55.730Z,4.60
2023-05-01T05:37:55.716Z,4.40
2023-05-01T05:38:55.718Z,4.70
2023-05-01T05:39:56.042Z,4.70
2023-05-01T05:40:55.704Z,4.70
2023-05-01T05:41:55.708Z,4.70
2023-05-01T05:42:55.703Z,5.10
2023-05-01T05:43:55.707Z,4.90
2023-05-01T05:44:55.695Z,5.20
2023-05-01T05:45:56.021Z,4.70
2023-05-01T05:48:55.678Z,4.80
2023-05-01T05:49:55.942Z,5.10
2023-05-01T05:50:55.675Z,5.00
2023-05-01T05:51:55.667Z,4.70
2023-05-01T05:52:55.661Z,5.30
2023-05-01T05:53:55.661Z,5.30
2023-05-01T05:54:55.655Z,5.30
2023-05-01T05:55:55.664Z,5.10
2023-05-01T05:56:55.646Z,5.30
2023-05-01T05:57:56.879Z,4.80
2023-05-01T05:59:55.792Z,5.10
2023-05-01T06:00:55.652Z,5.50
2023-05-01T06:01:55.666Z,5.40
2023-05-01T06:02:55.722Z,5.20
2023-05-01T06:03:55.955Z,5.20
2023-05-01T06:04:55.621Z,5.70
2023-05-01T06:05:55.752Z,5.00
2023-05-01T06:06:55.895Z,5.00
2023-05-01T06:07:55.609Z,5.90
2023-05-01T06:09:55.773Z,4.70
2023-05-01T06:10:55.598Z,5.00
2023-05-01T06:11:55.600Z,4.80
2023-05-01T06:13:03.632Z,4.80
2023-05-01T06:13:55.589Z,4.80
2023-05-01T06:14:55.591Z,4.80
2023-05-01T06:15:55.619Z,4.90
2023-05-01T06:17:55.605Z,4.90
2023-05-01T06:18:55.570Z,4.50
2023-05-01T06:19:55.941Z,4.90
2023-05-01T06:20:55.577Z,4.90
2023-05-01T06:21:55.559Z,4.70
2023-05-01T06:22:55.571Z,4.50
2023-05-01T06:23:55.554Z,4.10
2023-05-01T06:24:55.553Z,4.20
2023-05-01T06:25:55.566Z,4.20
2023-05-01T06:26:55.542Z,4.70
2023-05-01T06:27:55.544Z,4.20
2023-05-01T06:28:55.542Z,3.80
2023-05-01T06:29:55.718Z,5.40
2023-05-01T06:30:55.549Z,4.00
2023-05-01T06:31:55.594Z,4.90
2023-05-01T06:32:55.585Z,5.00
2023-05-01T06:33:55.553Z,3.50
2023-05-01T06:34:55.511Z,3.70
2023-05-01T06:35:55.511Z,4.80
2023-05-01T06:36:55.514Z,4.40
2023-05-01T06:37:55.503Z,4.50
2023-05-01T06:38:55.502Z,4.40
2023-05-01T06:39:55.718Z,3.70
2023-05-01T06:40:55.493Z,3.80
2023-05-01T06:41:55.499Z,3.60
2023-05-01T06:42:55.486Z,4.10
2023-05-01T06:43:55.482Z,4.50
2023-05-01T06:44:55.476Z,6.00
2023-05-01T06:45:55.478Z,3.60
2023-05-01T06:46:55.558Z,3.60
2023-05-01T06:47:55.691Z,3.30
2023-05-01T06:48:55.472Z,4.30
2023-05-01T06:49:55.701Z,3.90
2023-05-01T06:50:55.461Z,3.50
2023-05-01T06:51:55.461Z,4.50
2023-05-01T06:52:55.459Z,4.50
2023-05-01T06:53:55.450Z,3.60
2023-05-01T06:54:55.452Z,3.30
2023-05-01T06:55:55.446Z,4.20
2023-05-01T06:56:55.440Z,3.10
2023-05-01T06:57:55.446Z,3.60
2023-05-01T06:58:55.447Z,3.70
2023-05-01T06:59:55.803Z,5.10
2023-05-01T07:00:55.585Z,3.60
2023-05-01T07:01:55.439Z,4.00
2023-05-01T07:02:55.498Z,4.50
2023-05-01T07:03:55.427Z,4.70
2023-05-01T07:04:55.436Z,3.60
2023-05-01T07:05:55.451Z,3.90
2023-05-01T07:06:55.564Z,3.80
2023-05-01T07:08:01.319Z,4.20
2023-05-01T07:08:55.408Z,3.60
2023-05-01T07:09:55.534Z,3.70
2023-05-01T07:10:55.405Z,3.20
2023-05-01T07:11:55.393Z,3.40
2023-05-01T07:12:55.400Z,3.90
2023-05-01T07:13:55.388Z,4.60
2023-05-01T07:14:55.389Z,4.60
2023-05-01T07:15:55.491Z,4.60
2023-05-01T07:16:55.574Z,4.80
2023-05-01T07:17:55.425Z,3.60
2023-05-01T07:18:55.387Z,4.00
2023-05-01T07:19:55.476Z,3.30
2023-05-01T07:20:55.368Z,4.50
2023-05-01T07:21:55.385Z,3.90
2023-05-01T07:22:55.366Z,3.40
2023-05-01T07:23:55.361Z,3.80
2023-05-01T07:24:55.357Z,3.80
2023-05-01T07:25:55.351Z,4.60
2023-05-01T07:26:55.354Z,4.90
2023-05-01T07:27:55.354Z,4.80
2023-05-01T07:28:55.343Z,4.30
2023-05-01T07:29:55.521Z,3.60
2023-05-01T07:30:55.343Z,4.10
2023-05-01T07:31:55.432Z,3.80
2023-05-01T07:32:55.370Z,3.60
2023-05-01T07:33:55.326Z,3.60
2023-05-01T07:34:55.324Z,3.30
2023-05-01T07:35:55.323Z,3.90
2023-05-01T07:36:55.325Z,3.40
2023-05-01T07:37:55.331Z,4.50
2023-05-01T07:38:55.326Z,3.40
2023-05-01T07:39:55.431Z,4.00
2023-05-01T07:40:55.306Z,3.60
2023-05-01T07:41:55.300Z,4.60
2023-05-01T07:42:55.305Z,4.40
2023-05-01T07:43:55.307Z,4.00
2023-05-01T07:44:55.297Z,3.50
2023-05-01T07:45:55.315Z,4.00
2023-05-01T07:46:55.287Z,4.00
2023-05-01T07:47:55.304Z,4.30
2023-05-01T07:48:55.291Z,3.50
2023-05-01T07:49:55.455Z,3.40
2023-05-01T07:50:55.279Z,4.50
2023-05-01T07:51:55.276Z,3.70
2023-05-01T07:52:55.276Z,3.80
2023-05-01T07:53:55.299Z,3.40
2023-05-01T07:54:55.265Z,3.40
2023-05-01T07:55:55.275Z,3.60
2023-05-01T07:56:55.258Z,4.20
2023-05-01T07:57:55.259Z,3.10
2023-05-01T07:58:55.257Z,4.10
2023-05-01T07:59:55.581Z,3.40
2023-05-01T08:00:55.247Z,3.40
2023-05-01T08:01:55.277Z,3.60
2023-05-01T08:02:55.499Z,3.70
2023-05-01T08:03:55.406Z,4.90
2023-05-01T08:04:55.464Z,3.40
2023-05-01T08:05:55.242Z,3.80
2023-05-01T08:06:55.553Z,3.50
2023-05-01T08:07:55.233Z,3.70
2023-05-01T08:08:55.225Z,4.10
2023-05-01T08:09:57.051Z,3.00
2023-05-01T08:10:55.246Z,4.00
2023-05-01T08:11:55.227Z,4.10
2023-05-01T08:12:55.221Z,3.40
2023-05-01T08:13:55.210Z,3.60
2023-05-01T08:14:55.220Z,3.90
2023-05-01T08:15:55.316Z,3.50
2023-05-01T08:16:55.317Z,3.60
2023-05-01T08:17:55.264Z,3.60
2023-05-01T08:18:55.224Z,3.70
2023-05-01T08:19:55.488Z,4.20
2023-05-01T08:20:55.200Z,4.20
2023-05-01T08:21:55.202Z,3.10
2023-05-01T08:22:55.223Z,3.30
2023-05-01T08:23:55.193Z,3.40
2023-05-01T08:24:55.187Z,4.70
2023-05-01T08:25:55.317Z,3.60
2023-05-01T08:26:55.186Z,4.00
2023-05-01T08:27:55.187Z,3.50
2023-05-01T08:28:55.183Z,3.50
2023-05-01T08:29:55.441Z,3.50
2023-05-01T08:30:55.184Z,4.40
2023-05-01T08:31:55.302Z,4.20
2023-05-01T08:32:55.216Z,3.30
2023-05-01T08:33:55.184Z,3.40
2023-05-01T08:34:55.173Z,3.10
2023-05-01T08:35:55.171Z,4.40
2023-05-01T08:36:55.174Z,3.00
2023-05-01T08:37:55.175Z,5.00
2023-05-01T08:38:55.173Z,4.70
2023-05-01T08:39:55.374Z,4.00
2023-05-01T08:40:55.161Z,4.10
2023-05-01T08:41:55.177Z,3.20
2023-05-01T08:42:55.165Z,3.50
2023-05-01T08:43:55.154Z,3.40
2023-05-01T08:44:55.153Z,4.50
2023-05-01T08:45:55.154Z,3.00
2023-05-01T08:46:55.213Z,3.70
2023-05-01T08:47:55.250Z,3.60
2023-05-01T08:48:55.144Z,3.30
2023-05-01T08:49:55.360Z,3.30
2023-05-01T08:50:55.140Z,3.30
2023-05-01T08:51:55.138Z,4.40
2023-05-01T08:52:55.138Z,4.20
2023-05-01T08:53:55.144Z,3.40
2023-05-01T08:54:55.144Z,3.70
2023-05-01T08:55:55.132Z,4.20
2023-05-01T08:56:55.125Z,3.50
2023-05-01T08:57:55.145Z,3.40
2023-05-01T08:58:55.129Z,4.10
2023-05-01T08:59:55.412Z,3.70
2023-05-01T09:00:55.117Z,3.30
2023-05-01T09:01:55.143Z,3.50
2023-05-01T09:02:55.151Z,5.20
2023-05-01T09:03:55.159Z,3.40
2023-05-01T09:04:55.162Z,4.50
2023-05-01T09:05:55.110Z,3.70
2023-05-01T09:06:55.380Z,3.50
2023-05-01T09:07:55.116Z,3.80
2023-05-01T09:08:55.103Z,3.60
2023-05-01T09:09:55.414Z,4.00
2023-05-01T09:10:55.104Z,4.00
2023-05-01T09:11:55.098Z,3.40
2023-05-01T09:12:55.094Z,3.60
2023-05-01T09:13:55.112Z,3.90
2023-05-01T09:14:55.106Z,3.60
2023-05-01T09:15:55.142Z,3.80
2023-05-01T09:16:55.128Z,4.60
2023-05-01T09:17:55.192Z,3.40
2023-05-01T09:18:55.085Z,3.80
2023-05-01T09:19:55.254Z,3.70
2023-05-01T09:20:55.081Z,3.90
2023-05-01T09:21:55.078Z,3.70
2023-05-01T09:22:55.079Z,3.80
2023-05-01T09:23:55.084Z,4.00
2023-05-01T09:24:55.072Z,4.10
2023-05-01T09:25:55.073Z,4.60
2023-05-01T09:26:55.077Z,3.70
2023-05-01T09:27:55.074Z,4.20
2023-05-01T09:28:55.072Z,4.70
2023-05-01T09:29:55.343Z,4.00
2023-05-01T09:30:55.061Z,3.70
2023-05-01T09:31:55.104Z,3.70
2023-05-01T09:32:55.112Z,3.30
2023-05-01T09:33:55.069Z,3.70
2023-05-01T09:34:55.068Z,3.70
2023-05-01T09:35:55.119Z,3.40
2023-05-01T09:36:55.068Z,4.80
2023-05-01T09:37:55.054Z,4.30
2023-05-01T09:38:55.056Z,3.90
2023-05-01T09:39:55.234Z,3.70
2023-05-01T09:40:55.045Z,3.30
2023-05-01T09:41:55.053Z,4.20
2023-05-01T09:42:55.040Z,4.00
2023-05-01T09:43:55.039Z,3.50
2023-05-01T09:44:55.042Z,4.10
2023-05-01T09:45:55.123Z,4.20
2023-05-01T09:46:55.042Z,4.50
2023-05-01T09:47:55.104Z,3.90
2023-05-01T09:48:55.040Z,3.50
2023-05-01T09:49:55.178Z,3.50
2023-05-01T09:50:55.037Z,3.70
2023-05-01T09:51:55.029Z,4.40
2023-05-01T09:52:55.025Z,3.70
2023-05-01T09:53:55.028Z,4.80
2023-05-01T09:54:55.020Z,4.00
2023-05-01T09:55:55.024Z,3.40
2023-05-01T09:56:55.020Z,4.90
2023-05-01T09:57:55.016Z,4.00
2023-05-01T09:58:55.031Z,4.00
2023-05-01T09:59:55.206Z,4.70
2023-05-01T10:00:55.050Z,4.10
2023-05-01T10:01:55.090Z,3.80
2023-05-01T10:02:55.217Z,4.20
2023-05-01T10:03:55.111Z,4.10
2023-05-01T10:04:55.023Z,5.40
2023-05-01T10:05:55.010Z,4.60
2023-05-01T10:06:55.053Z,3.80
2023-05-01T10:07:55.009Z,4.30
2023-05-01T10:08:54.998Z,3.70
2023-05-01T10:09:55.363Z,4.50
2023-05-01T10:10:54.997Z,3.50
2023-05-01T10:11:54.996Z,4.60
2023-05-01T10:12:55.065Z,3.80
2023-05-01T10:13:55.022Z,3.40
2023-05-01T10:14:55.018Z,4.30
2023-05-01T10:15:54.993Z,3.70
2023-05-01T10:16:55.024Z,3.80
2023-05-01T10:17:55.240Z,4.10
2023-05-01T10:18:54.998Z,4.40
2023-05-01T10:19:55.302Z,4.10
2023-05-01T10:20:54.983Z,3.70
2023-05-01T10:21:54.985Z,3.20
2023-05-01T10:22:54.981Z,3.50
2023-05-01T10:23:54.978Z,3.60
2023-05-01T10:26:38.708Z,4.00
2023-05-01T10:27:38.708Z,3.40
2023-05-01T10:28:38.704Z,3.20
2023-05-01T10:29:38.702Z,4.00
2023-05-01T10:30:38.716Z,3.80
2023-05-01T10:31:40.782Z,3.40
2023-05-01T10:32:38.781Z,3.30
2023-05-01T10:33:38.731Z,3.60
2023-05-01T10:34:38.700Z,3.40
2023-05-01T10:35:38.710Z,4.50
2023-05-01T10:36:38.695Z,3.60
2023-05-01T10:37:38.709Z,3.40
2023-05-01T10:38:38.692Z,5.20
2023-05-01T10:39:38.730Z,3.40
2023-05-01T10:40:38.701Z,3.30
2023-05-01T10:41:38.694Z,3.30
2023-05-01T10:42:38.700Z,3.20
2023-05-01T10:43:38.681Z,3.50
2023-05-01T10:44:38.693Z,4.20
2023-05-01T10:45:38.675Z,3.70
2023-05-01T10:46:38.719Z,3.60
2023-05-01T10:47:38.716Z,3.20
2023-05-01T10:48:38.673Z,3.00
2023-05-01T10:49:38.801Z,3.60
2023-05-01T10:50:38.672Z,3.20
2023-05-01T10:51:38.668Z,3.50
2023-05-01T10:52:38.668Z,3.30
2023-05-01T10:53:38.664Z,3.40
2023-05-01T10:54:38.665Z,3.30
2023-05-01T10:55:38.678Z,3.10
2023-05-01T10:56:38.664Z,3.10
2023-05-01T10:57:38.658Z,4.10
2023-05-01T10:58:38.683Z,2.80
2023-05-01T10:59:38.661Z,3.80
2023-05-01T11:00:38.657Z,2.70
2023-05-01T11:01:38.677Z,2.80
2023-05-01T11:02:38.676Z,2.60
2023-05-01T11:03:38.657Z,2.90
2023-05-01T11:04:38.656Z,3.70
2023-05-01T11:05:38.926Z,3.70
2023-05-01T11:06:38.795Z,3.30
2023-05-01T11:07:38.642Z,3.80
2023-05-01T11:08:38.818Z,3.40
2023-05-01T11:09:38.710Z,3.70
2023-05-01T11:10:38.675Z,4.30
2023-05-01T11:11:38.643Z,3.50
2023-05-01T11:12:38.641Z,3.50
2023-05-01T11:13:38.650Z,3.90
2023-05-01T11:14:38.706Z,3.10
2023-05-01T11:15:38.645Z,2.90
2023-05-01T11:16:38.900Z,3.30
2023-05-01T11:17:38.682Z,3.30
2023-05-01T11:18:38.627Z,3.20
2023-05-01T11:19:38.634Z,3.20
2023-05-01T11:20:38.632Z,3.10
2023-05-01T11:21:38.648Z,3.60
2023-05-01T11:22:38.621Z,2.80
2023-05-01T11:23:38.622Z,2.60
2023-05-01T11:24:38.629Z,2.80
2023-05-01T11:25:38.621Z,3.20
2023-05-01T11:26:38.627Z,2.90
2023-05-01T11:27:38.617Z,2.70
2023-05-01T11:28:38.636Z,3.50
2023-05-01T11:29:38.611Z,3.40
2023-05-01T11:30:38.614Z,3.60
2023-05-01T11:31:38.651Z,3.30
2023-05-01T11:32:38.635Z,3.20
2023-05-01T11:33:38.616Z,3.80
2023-05-01T11:34:38.611Z,3.70
2023-05-01T11:35:38.692Z,3.80
2023-05-01T11:36:38.604Z,3.60
2023-05-01T11:37:38.621Z,3.90
2023-05-01T11:38:38.606Z,3.30
2023-05-01T11:39:38.600Z,2.90
2023-05-01T11:40:38.609Z,2.70
2023-05-01T11:41:38.596Z,3.40
2023-05-01T11:42:38.718Z,2.70
2023-05-01T11:43:38.593Z,2.90
2023-05-01T11:44:38.629Z,3.10
2023-05-01T11:45:38.625Z,3.00
2023-05-01T11:46:38.590Z,3.10
2023-05-01T11:47:38.656Z,3.30
2023-05-01T11:48:38.588Z,3.70
2023-05-01T11:49:38.585Z,3.30
2023-05-01T11:50:38.587Z,3.40
2023-05-01T11:51:38.642Z,2.70
2023-05-01T11:52:38.584Z,2.90
2023-05-01T11:53:38.618Z,2.80
2023-05-01T11:54:38.579Z,3.00
2023-05-01T11:55:38.579Z,2.60
2023-05-01T11:56:38.587Z,2.60
2023-05-01T11:57:38.576Z,2.30
2023-05-01T11:58:38.579Z,3.10
2023-05-01T11:59:38.573Z,2.60
2023-05-01T12:00:38.577Z,2.40
2023-05-01T12:01:38.574Z,2.00
2023-05-01T12:02:38.774Z,2.10
2023-05-01T12:03:38.662Z,2.00
2023-05-01T12:04:38.641Z,2.50
2023-05-01T12:05:38.581Z,2.10
2023-05-01T12:06:38.686Z,2.00
2023-05-01T12:07:38.561Z,2.30
2023-05-01T12:08:38.562Z,2.70
2023-05-01T12:09:38.580Z,2.60
2023-05-01T12:10:38.568Z,2.40
2023-05-01T12:11:38.576Z,2.50
2023-05-01T12:12:38.556Z,3.20
2023-05-01T12:13:38.560Z,2.00
2023-05-01T12:14:38.556Z,2.00
2023-05-01T12:15:38.569Z,2.10
2023-05-01T12:16:38.623Z,2.20
2023-05-01T12:17:38.621Z,2.40
2023-05-01T12:18:38.587Z,2.30
2023-05-01T12:19:38.571Z,2.70
2023-05-01T12:20:38.571Z,2.20
2023-05-01T12:21:38.555Z,2.30
2023-05-01T12:22:38.571Z,2.30
2023-05-01T12:23:38.567Z,2.60
2023-05-01T12:24:38.562Z,2.90
2023-05-01T12:25:38.565Z,2.60
2023-05-01T12:26:38.546Z,3.10
2023-05-01T12:27:38.553Z,2.50
2023-05-01T12:28:38.560Z,2.50
2023-05-01T12:29:38.582Z,2.30
2023-05-01T12:30:38.563Z,3.90
2023-05-01T12:31:38.582Z,2.00
2023-05-01T12:32:38.547Z,2.90
2023-05-01T12:33:38.572Z,2.60
2023-05-01T12:34:38.532Z,2.30
2023-05-01T12:35:38.561Z,2.30
2023-05-01T12:36:38.582Z,2.00
2023-05-01T12:37:38.574Z,2.50
2023-05-01T12:38:38.535Z,2.30
2023-05-01T12:39:38.556Z,2.20
2023-05-01T12:40:38.549Z,2.90
2023-05-01T12:41:38.574Z,2.40
2023-05-01T12:42:38.550Z,2.60
2023-05-01T12:43:38.536Z,2.40
2023-05-01T12:44:38.554Z,2.30
2023-05-01T12:45:38.517Z,2.30
2023-05-01T12:46:38.543Z,2.20
2023-05-01T12:47:38.579Z,2.00
2023-05-01T12:48:38.540Z,1.70
2023-05-01T12:49:38.541Z,1.80
2023-05-01T12:50:38.550Z,1.90
2023-05-01T12:51:38.532Z,1.70
2023-05-01T12:52:38.510Z,1.80
2023-05-01T12:53:38.512Z,1.60
2023-05-01T12:54:38.550Z,1.80
2023-05-01T12:55:38.535Z,1.70
2023-05-01T12:56:38.545Z,1.80
2023-05-01T12:57:38.541Z,1.90
2023-05-01T12:58:38.640Z,1.70
2023-05-01T12:59:38.508Z,1.80
2023-05-01T13:00:38.501Z,1.80
2023-05-01T13:01:38.565Z,2.30
2023-05-01T13:02:38.515Z,2.20
2023-05-01T13:03:40.761Z,2.00
2023-05-01T13:04:38.497Z,1.90
2023-05-01T13:05:38.500Z,1.90
2023-05-01T13:06:38.543Z,1.80
2023-05-01T13:07:38.533Z,2.20
2023-05-01T13:08:38.544Z,1.80
2023-05-01T13:09:38.492Z,1.80
2023-05-01T13:10:38.492Z,1.90
2023-05-01T13:11:38.493Z,2.20
2023-05-01T13:12:38.490Z,2.60
2023-05-01T13:13:38.546Z,2.20
2023-05-01T13:14:38.534Z,2.30
2023-05-01T13:15:38.483Z,2.30
2023-05-01T13:16:38.528Z,2.30
2023-05-01T13:17:38.561Z,2.20
2023-05-01T13:18:38.485Z,2.50
2023-05-01T13:19:38.538Z,2.70
2023-05-01T13:20:38.482Z,2.20
2023-05-01T13:21:38.480Z,1.90
2023-05-01T13:22:38.536Z,2.30
2023-05-01T13:23:38.479Z,2.20
2023-05-01T13:24:38.480Z,2.10
2023-05-01T13:25:38.928Z,2.20
2023-05-01T13:26:38.475Z,2.10
2023-05-01T13:27:38.480Z,2.20
2023-05-01T13:28:38.473Z,3.20
2023-05-01T13:29:38.539Z,3.30
2023-05-01T13:30:38.476Z,3.60
2023-05-01T13:31:38.529Z,3.60
2023-05-01T13:32:38.511Z,4.10
2023-05-01T13:33:38.471Z,3.50